sensor_id;sensor_type;location;lat;lon;timestamp;pressure;altitude;pressure_sealevel;temperature;humidity
13767;BME280;47980;48.794;9.176;2023-07-13T00:00:20;98186.84;;;21.77;57.29
13767;BME280;47980;48.794;9.176;2023-07-13T00:02:52;98181.56;;;21.62;57.05
13767;BME280;47980;48.794;9.176;2023-07-13T00:05:24;98175.75;;;21.64;56.78
13767;BME280;47980;48.794;9.176;2023-07-13T00:07:56;98175.03;;;21.56;58.25
13767;BME280;47980;48.794;9.176;2023-07-13T00:10:29;98175.44;;;21.55;57.17
13767;BME280;47980;48.794;9.176;2023-07-13T00:13:00;98171.94;;;21.58;57.45
13767;BME280;47980;48.794;9.176;2023-07-13T00:15:32;98172.34;;;21.53;56.43
13767;BME280;47980;48.794;9.176;2023-07-13T00:18:03;98168.59;;;21.39;57.92
13767;BME280;47980;48.794;9.176;2023-07-13T00:20:35;98167.88;;;21.28;58.87
13767;BME280;47980;48.794;9.176;2023-07-13T00:23:06;98167.56;;;21.08;56.75
13767;BME280;47980;48.794;9.176;2023-07-13T00:25:39;98174.13;;;21.04;59.03
13767;BME280;47980;48.794;9.176;2023-07-13T00:28:11;98165.66;;;21.02;58.45
13767;BME280;47980;48.794;9.176;2023-07-13T00:30:42;98159.13;;;21.03;59.23
13767;BME280;47980;48.794;9.176;2023-07-13T00:33:14;98170.00;;;20.81;60.02
13767;BME280;47980;48.794;9.176;2023-07-13T00:35:46;98170.81;;;20.60;60.28
13767;BME280;47980;48.794;9.176;2023-07-13T00:38:18;98172.28;;;20.83;59.13
13767;BME280;47980;48.794;9.176;2023-07-13T00:40:50;98173.81;;;20.80;59.63
13767;BME280;47980;48.794;9.176;2023-07-13T00:43:24;98173.81;;;20.84;57.58
13767;BME280;47980;48.794;9.176;2023-07-13T00:46:21;98172.72;;;20.71;59.17
13767;BME280;47980;48.794;9.176;2023-07-13T00:48:56;98173.13;;;20.40;61.00
13767;BME280;47980;48.794;9.176;2023-07-13T00:51:32;98180.47;;;20.22;61.37
13767;BME280;47980;48.794;9.176;2023-07-13T00:54:08;98181.63;;;20.25;60.78
13767;BME280;47980;48.794;9.176;2023-07-13T00:56:43;98183.16;;;20.26;61.78
13767;BME280;47980;48.794;9.176;2023-07-13T00:59:17;98189.34;;;20.26;61.17
13767;BME280;47980;48.794;9.176;2023-07-13T01:01:50;98188.94;;;20.31;61.92
13767;BME280;47980;48.794;9.176;2023-07-13T01:04:23;98187.78;;;20.36;61.68
13767;BME280;47980;48.794;9.176;2023-07-13T01:06:56;98196.63;;;20.33;61.54
13767;BME280;47980;48.794;9.176;2023-07-13T01:09:28;98200.88;;;20.30;59.62
13767;BME280;47980;48.794;9.176;2023-07-13T01:12:01;98197.78;;;20.35;61.12
13767;BME280;47980;48.794;9.176;2023-07-13T01:14:33;98198.19;;;20.30;60.99
13767;BME280;47980;48.794;9.176;2023-07-13T01:17:05;98199.31;;;20.29;62.26
13767;BME280;47980;48.794;9.176;2023-07-13T01:19:38;98203.97;;;20.22;62.39
13767;BME280;47980;48.794;9.176;2023-07-13T01:22:12;98195.50;;;20.09;62.00
13767;BME280;47980;48.794;9.176;2023-07-13T01:24:46;98198.56;;;20.11;60.59
13767;BME280;47980;48.794;9.176;2023-07-13T01:27:22;98203.97;;;20.11;60.44
13767;BME280;47980;48.794;9.176;2023-07-13T01:29:55;98197.81;;;20.00;61.72
13767;BME280;47980;48.794;9.176;2023-07-13T01:32:32;98199.72;;;19.99;61.52
13767;BME280;47980;48.794;9.176;2023-07-13T01:35:04;98200.13;;;19.94;63.03
13767;BME280;47980;48.794;9.176;2023-07-13T01:37:37;98202.03;;;19.86;62.91
13767;BME280;47980;48.794;9.176;2023-07-13T01:40:10;98206.25;;;19.69;62.99
13767;BME280;47980;48.794;9.176;2023-07-13T01:42:41;98214.31;;;19.66;62.54
13767;BME280;47980;48.794;9.176;2023-07-13T01:45:13;98213.50;;;19.55;64.51
13767;BME280;47980;48.794;9.176;2023-07-13T01:47:44;98216.19;;;19.58;63.85
13767;BME280;47980;48.794;9.176;2023-07-13T01:50:16;98216.19;;;19.51;66.16
13767;BME280;47980;48.794;9.176;2023-07-13T01:52:49;98210.78;;;19.47;66.62
13767;BME280;47980;48.794;9.176;2023-07-13T01:55:21;98209.22;;;19.36;64.88
13767;BME280;47980;48.794;9.176;2023-07-13T01:57:53;98214.59;;;19.32;63.89
13767;BME280;47980;48.794;9.176;2023-07-13T02:00:24;98213.81;;;19.35;65.90
13767;BME280;47980;48.794;9.176;2023-07-13T02:02:56;98219.56;;;19.27;64.98
13767;BME280;47980;48.794;9.176;2023-07-13T02:05:27;98216.50;;;19.28;64.94
13767;BME280;47980;48.794;9.176;2023-07-13T02:08:00;98223.00;;;19.23;66.27
13767;BME280;47980;48.794;9.176;2023-07-13T02:10:32;98220.69;;;19.22;65.36
13767;BME280;47980;48.794;9.176;2023-07-13T02:13:04;98230.72;;;19.25;66.86
13767;BME280;47980;48.794;9.176;2023-07-13T02:15:38;98229.50;;;19.15;65.60
13767;BME280;47980;48.794;9.176;2023-07-13T02:18:10;98229.47;;;19.08;66.00
13767;BME280;47980;48.794;9.176;2023-07-13T02:20:46;98226.06;;;19.15;62.93
13767;BME280;47980;48.794;9.176;2023-07-13T02:23:19;98224.88;;;19.12;65.29
13767;BME280;47980;48.794;9.176;2023-07-13T02:25:55;98230.63;;;19.07;67.03
13767;BME280;47980;48.794;9.176;2023-07-13T02:28:27;98225.63;;;19.09;65.48
13767;BME280;47980;48.794;9.176;2023-07-13T02:31:04;98232.16;;;19.08;66.10
13767;BME280;47980;48.794;9.176;2023-07-13T02:33:36;98236.72;;;18.97;65.68
13767;BME280;47980;48.794;9.176;2023-07-13T02:36:07;98236.72;;;18.93;67.50
13767;BME280;47980;48.794;9.176;2023-07-13T02:38:41;98233.59;;;18.91;68.24
13767;BME280;47980;48.794;9.176;2023-07-13T02:41:12;98238.66;;;18.96;65.33
13767;BME280;47980;48.794;9.176;2023-07-13T02:43:44;98239.44;;;19.00;63.45
13767;BME280;47980;48.794;9.176;2023-07-13T02:46:15;98241.72;;;18.98;64.17
13767;BME280;47980;48.794;9.176;2023-07-13T02:48:46;98249.47;;;19.07;63.24
13767;BME280;47980;48.794;9.176;2023-07-13T02:51:18;98244.88;;;19.15;61.26
13767;BME280;47980;48.794;9.176;2023-07-13T02:53:51;98248.75;;;19.17;62.19
13767;BME280;47980;48.794;9.176;2023-07-13T02:56:24;98249.13;;;19.23;63.16
13767;BME280;47980;48.794;9.176;2023-07-13T02:58:57;98245.25;;;19.17;64.46
13767;BME280;47980;48.794;9.176;2023-07-13T03:01:28;98250.53;;;18.88;65.80
13767;BME280;47980;48.794;9.176;2023-07-13T03:04:00;98247.44;;;18.90;65.66
13767;BME280;47980;48.794;9.176;2023-07-13T03:06:32;98246.66;;;18.86;66.79
13767;BME280;47980;48.794;9.176;2023-07-13T03:09:06;98250.88;;;18.87;65.22
13767;BME280;47980;48.794;9.176;2023-07-13T03:11:38;98255.88;;;18.85;67.15
13767;BME280;47980;48.794;9.176;2023-07-13T03:14:09;98255.13;;;18.91;65.25
13767;BME280;47980;48.794;9.176;2023-07-13T03:16:41;98267.84;;;19.02;64.68
13767;BME280;47980;48.794;9.176;2023-07-13T03:19:12;98252.56;;;19.16;63.11
13767;BME280;47980;48.794;9.176;2023-07-13T03:21:44;98259.13;;;19.22;61.86
13767;BME280;47980;48.794;9.176;2023-07-13T03:24:17;98260.69;;;19.27;61.58
13767;BME280;47980;48.794;9.176;2023-07-13T03:26:48;98262.63;;;19.30;61.56
13767;BME280;47980;48.794;9.176;2023-07-13T03:29:20;98268.06;;;19.44;60.70
13767;BME280;47980;48.794;9.176;2023-07-13T03:31:51;98271.53;;;19.52;59.69
13767;BME280;47980;48.794;9.176;2023-07-13T03:34:23;98284.25;;;19.59;62.21
13767;BME280;47980;48.794;9.176;2023-07-13T03:36:55;98283.91;;;19.64;59.09
13767;BME280;47980;48.794;9.176;2023-07-13T03:39:27;98285.50;;;19.76;60.45
13767;BME280;47980;48.794;9.176;2023-07-13T03:41:59;98290.09;;;19.79;58.90
13767;BME280;47980;48.794;9.176;2023-07-13T03:44:31;98282.44;;;19.91;59.93
13767;BME280;47980;48.794;9.176;2023-07-13T03:47:03;98284.38;;;19.98;60.57
13767;BME280;47980;48.794;9.176;2023-07-13T03:49:36;98288.22;;;19.90;60.41
13767;BME280;47980;48.794;9.176;2023-07-13T03:52:08;98294.00;;;20.10;63.56
13767;BME280;47980;48.794;9.176;2023-07-13T03:54:40;98299.41;;;20.13;62.95
13767;BME280;47980;48.794;9.176;2023-07-13T03:57:12;98295.56;;;20.14;62.51
13767;BME280;47980;48.794;9.176;2023-07-13T03:59:43;98307.91;;;20.19;61.83
13767;BME280;47980;48.794;9.176;2023-07-13T04:02:15;98304.41;;;20.22;63.61
13767;BME280;47980;48.794;9.176;2023-07-13T04:04:47;98299.03;;;20.26;62.65
13767;BME280;47980;48.794;9.176;2023-07-13T04:07:19;98307.50;;;20.13;62.92
13767;BME280;47980;48.794;9.176;2023-07-13T04:09:52;98300.56;;;20.12;62.16
13767;BME280;47980;48.794;9.176;2023-07-13T04:12:23;98302.47;;;19.98;62.85
13767;BME280;47980;48.794;9.176;2023-07-13T04:14:55;98304.75;;;19.95;63.84
13767;BME280;47980;48.794;9.176;2023-07-13T04:17:26;98300.53;;;19.91;64.10
13767;BME280;47980;48.794;9.176;2023-07-13T04:19:58;98302.78;;;19.82;62.41
13767;BME280;47980;48.794;9.176;2023-07-13T04:22:29;98305.53;;;19.92;64.49
13767;BME280;47980;48.794;9.176;2023-07-13T04:25:02;98310.13;;;19.92;62.97
13767;BME280;47980;48.794;9.176;2023-07-13T04:27:35;98307.88;;;20.05;63.85
13767;BME280;47980;48.794;9.176;2023-07-13T04:30:08;98309.78;;;20.04;63.31
13767;BME280;47980;48.794;9.176;2023-07-13T04:32:39;98313.63;;;20.03;64.16
13767;BME280;47980;48.794;9.176;2023-07-13T04:35:11;98307.88;;;20.05;64.49
13767;BME280;47980;48.794;9.176;2023-07-13T04:37:44;98312.47;;;19.90;63.10
13767;BME280;47980;48.794;9.176;2023-07-13T04:40:17;98307.81;;;19.83;64.89
13767;BME280;47980;48.794;9.176;2023-07-13T04:42:49;98320.13;;;19.88;63.87
13767;BME280;47980;48.794;9.176;2023-07-13T04:45:20;98320.09;;;19.74;65.63
13767;BME280;47980;48.794;9.176;2023-07-13T04:47:52;98319.34;;;19.77;63.01
13767;BME280;47980;48.794;9.176;2023-07-13T04:50:23;98318.06;;;19.56;64.45
13767;BME280;47980;48.794;9.176;2023-07-13T04:52:55;98318.06;;;19.56;63.31
13767;BME280;47980;48.794;9.176;2023-07-13T04:55:28;98318.13;;;19.63;64.24
13767;BME280;47980;48.794;9.176;2023-07-13T04:58:00;98324.31;;;19.71;62.05
13767;BME280;47980;48.794;9.176;2023-07-13T05:00:32;98324.22;;;19.60;65.24
13767;BME280;47980;48.794;9.176;2023-07-13T05:03:04;98318.91;;;19.67;65.25
13767;BME280;47980;48.794;9.176;2023-07-13T05:05:36;98325.06;;;19.75;64.88
13767;BME280;47980;48.794;9.176;2023-07-13T05:08:07;98323.59;;;19.92;61.81
13767;BME280;47980;48.794;9.176;2023-07-13T05:10:40;98331.75;;;20.20;62.89
13767;BME280;47980;48.794;9.176;2023-07-13T05:13:12;98324.44;;;20.46;61.59
13767;BME280;47980;48.794;9.176;2023-07-13T05:15:43;98328.72;;;20.72;59.16
13767;BME280;47980;48.794;9.176;2023-07-13T05:18:15;98336.03;;;20.86;57.46
13767;BME280;47980;48.794;9.176;2023-07-13T05:20:46;98327.91;;;21.07;58.57
13767;BME280;47980;48.794;9.176;2023-07-13T05:23:18;98330.56;;;21.25;54.50
13767;BME280;47980;48.794;9.176;2023-07-13T05:25:51;98338.69;;;21.07;54.83
13767;BME280;47980;48.794;9.176;2023-07-13T05:28:22;98330.16;;;21.27;54.71
13767;BME280;47980;48.794;9.176;2023-07-13T05:30:54;98334.50;;;20.74;55.45
13767;BME280;47980;48.794;9.176;2023-07-13T05:33:26;98327.53;;;20.98;54.63
13767;BME280;47980;48.794;9.176;2023-07-13T05:35:58;98326.41;;;20.96;55.39
13767;BME280;47980;48.794;9.176;2023-07-13T05:38:30;98327.91;;;21.00;55.82
13767;BME280;47980;48.794;9.176;2023-07-13T05:41:03;98328.25;;;21.13;54.10
13767;BME280;47980;48.794;9.176;2023-07-13T05:43:35;98338.69;;;21.18;54.11
13767;BME280;47980;48.794;9.176;2023-07-13T05:46:06;98331.34;;;21.15;54.81
13767;BME280;47980;48.794;9.176;2023-07-13T05:48:38;98338.25;;;21.27;54.66
13767;BME280;47980;48.794;9.176;2023-07-13T05:51:09;98343.66;;;21.41;55.28
13767;BME280;47980;48.794;9.176;2023-07-13T05:53:41;98349.84;;;21.34;55.36
13767;BME280;47980;48.794;9.176;2023-07-13T05:56:13;98344.09;;;21.04;54.54
13767;BME280;47980;48.794;9.176;2023-07-13T05:58:45;98343.72;;;20.95;54.39
13767;BME280;47980;48.794;9.176;2023-07-13T06:01:17;98339.88;;;21.06;54.15
13767;BME280;47980;48.794;9.176;2023-07-13T06:03:50;98342.59;;;20.85;56.18
13767;BME280;47980;48.794;9.176;2023-07-13T06:06:22;98346.75;;;21.39;54.90
13767;BME280;47980;48.794;9.176;2023-07-13T06:08:53;98350.50;;;21.67;52.96
13767;BME280;47980;48.794;9.176;2023-07-13T06:11:27;98353.25;;;22.37;52.51
13767;BME280;47980;48.794;9.176;2023-07-13T06:14:00;98358.69;;;22.82;51.60
13767;BME280;47980;48.794;9.176;2023-07-13T06:16:31;98359.28;;;23.04;49.52
13767;BME280;47980;48.794;9.176;2023-07-13T06:19:03;98357.41;;;23.73;48.57
13767;BME280;47980;48.794;9.176;2023-07-13T06:21:34;98363.09;;;23.48;47.89
13767;BME280;47980;48.794;9.176;2023-07-13T06:24:06;98366.09;;;23.19;47.11
13767;BME280;47980;48.794;9.176;2023-07-13T06:26:39;98367.88;;;22.95;48.63
13767;BME280;47980;48.794;9.176;2023-07-13T06:29:10;98371.72;;;22.98;49.13
13767;BME280;47980;48.794;9.176;2023-07-13T06:31:42;98378.06;;;22.10;50.99
13767;BME280;47980;48.794;9.176;2023-07-13T06:34:13;98388.97;;;21.93;50.79
13767;BME280;47980;48.794;9.176;2023-07-13T06:36:45;98387.91;;;21.72;51.27
13767;BME280;47980;48.794;9.176;2023-07-13T06:39:16;98385.44;;;22.06;49.58
13767;BME280;47980;48.794;9.176;2023-07-13T06:41:49;98387.63;;;22.33;48.87
13767;BME280;47980;48.794;9.176;2023-07-13T06:44:20;98396.25;;;22.06;48.84
13767;BME280;47980;48.794;9.176;2023-07-13T06:46:52;98395.06;;;22.77;48.27
13767;BME280;47980;48.794;9.176;2023-07-13T06:49:23;98393.78;;;23.34;47.91
13767;BME280;47980;48.794;9.176;2023-07-13T06:51:55;98397.59;;;23.78;46.43
13767;BME280;47980;48.794;9.176;2023-07-13T06:54:27;98392.97;;;24.09;45.43
13767;BME280;47980;48.794;9.176;2023-07-13T06:56:59;98392.63;;;24.34;45.70
13767;BME280;47980;48.794;9.176;2023-07-13T06:59:31;98391.03;;;23.79;45.39
13767;BME280;47980;48.794;9.176;2023-07-13T07:02:03;98400.34;;;23.74;44.48
13767;BME280;47980;48.794;9.176;2023-07-13T07:04:35;98400.38;;;22.95;46.25
13767;BME280;47980;48.794;9.176;2023-07-13T07:07:06;98403.91;;;22.81;45.14
13767;BME280;47980;48.794;9.176;2023-07-13T07:09:38;98407.09;;;23.21;45.11
13767;BME280;47980;48.794;9.176;2023-07-13T07:12:11;98401.19;;;23.71;43.24
13767;BME280;47980;48.794;9.176;2023-07-13T07:14:42;98400.84;;;23.96;44.08
13767;BME280;47980;48.794;9.176;2023-07-13T07:17:14;98410.75;;;24.10;43.94
13767;BME280;47980;48.794;9.176;2023-07-13T07:19:45;98399.44;;;23.85;44.51
13767;BME280;47980;48.794;9.176;2023-07-13T07:22:17;98398.47;;;24.02;44.81
13767;BME280;47980;48.794;9.176;2023-07-13T07:24:48;98406.72;;;24.22;44.89
13767;BME280;47980;48.794;9.176;2023-07-13T07:27:21;98398.19;;;24.23;43.30
13767;BME280;47980;48.794;9.176;2023-07-13T07:29:53;98402.22;;;24.39;43.32
13767;BME280;47980;48.794;9.176;2023-07-13T07:32:25;98394.00;;;23.88;42.93
13767;BME280;47980;48.794;9.176;2023-07-13T07:34:56;98405.47;;;23.65;42.57
13767;BME280;47980;48.794;9.176;2023-07-13T07:37:28;98395.69;;;23.78;42.23
13767;BME280;47980;48.794;9.176;2023-07-13T07:39:59;98391.28;;;23.88;42.50
13767;BME280;47980;48.794;9.176;2023-07-13T07:42:32;98393.50;;;23.97;42.90
13767;BME280;47980;48.794;9.176;2023-07-13T07:45:04;98398.69;;;24.45;42.90
13767;BME280;47980;48.794;9.176;2023-07-13T07:47:36;98396.59;;;24.80;42.13
13767;BME280;47980;48.794;9.176;2023-07-13T07:50:08;98402.31;;;24.86;41.46
13767;BME280;47980;48.794;9.176;2023-07-13T07:52:40;98399.28;;;24.57;40.00
13767;BME280;47980;48.794;9.176;2023-07-13T07:55:11;98400.97;;;24.47;41.21
13767;BME280;47980;48.794;9.176;2023-07-13T07:57:44;98399.59;;;25.13;40.08
13767;BME280;47980;48.794;9.176;2023-07-13T08:00:16;98399.28;;;24.30;40.81
13767;BME280;47980;48.794;9.176;2023-07-13T08:02:48;98402.25;;;23.77;41.65
13767;BME280;47980;48.794;9.176;2023-07-13T08:05:19;98403.56;;;23.62;41.74
13767;BME280;47980;48.794;9.176;2023-07-13T08:07:51;98409.72;;;24.00;42.15
13767;BME280;47980;48.794;9.176;2023-07-13T08:10:22;98409.84;;;24.51;42.45
13767;BME280;47980;48.794;9.176;2023-07-13T08:12:55;98408.72;;;24.48;40.97
13767;BME280;47980;48.794;9.176;2023-07-13T08:15:27;98409.28;;;24.63;41.00
13767;BME280;47980;48.794;9.176;2023-07-13T08:17:59;98409.94;;;24.13;41.58
13767;BME280;47980;48.794;9.176;2023-07-13T08:20:30;98410.47;;;24.86;39.58
13767;BME280;47980;48.794;9.176;2023-07-13T08:23:02;98410.09;;;25.07;40.21
13767;BME280;47980;48.794;9.176;2023-07-13T08:25:33;98410.66;;;25.22;41.24
13767;BME280;47980;48.794;9.176;2023-07-13T08:28:06;98414.38;;;25.32;38.64
13767;BME280;47980;48.794;9.176;2023-07-13T08:30:38;98409.31;;;25.10;39.61
13767;BME280;47980;48.794;9.176;2023-07-13T08:33:09;98408.94;;;24.58;40.43
13767;BME280;47980;48.794;9.176;2023-07-13T08:35:41;98402.09;;;25.00;40.66
13767;BME280;47980;48.794;9.176;2023-07-13T08:38:12;98405.81;;;25.10;41.05
13767;BME280;47980;48.794;9.176;2023-07-13T08:40:54;98414.31;;;25.35;40.65
13767;BME280;47980;48.794;9.176;2023-07-13T08:43:28;98413.88;;;25.37;40.75
13767;BME280;47980;48.794;9.176;2023-07-13T08:46:05;98411.59;;;25.55;41.09
13767;BME280;47980;48.794;9.176;2023-07-13T08:48:43;98411.25;;;25.10;42.08
13767;BME280;47980;48.794;9.176;2023-07-13T08:51:26;98413.72;;;24.77;41.29
13767;BME280;47980;48.794;9.176;2023-07-13T08:54:04;98417.84;;;25.09;40.91
13767;BME280;47980;48.794;9.176;2023-07-13T08:56:36;98411.50;;;24.68;41.48
13767;BME280;47980;48.794;9.176;2023-07-13T08:59:13;98419.75;;;25.35;41.09
13767;BME280;47980;48.794;9.176;2023-07-13T09:01:59;98415.19;;;25.92;41.10
13767;BME280;47980;48.794;9.176;2023-07-13T09:04:35;98409.44;;;26.06;41.17
13767;BME280;47980;48.794;9.176;2023-07-13T09:07:14;98414.81;;;25.50;39.46
13767;BME280;47980;48.794;9.176;2023-07-13T09:09:57;98418.91;;;25.38;40.30
13767;BME280;47980;48.794;9.176;2023-07-13T09:12:35;98407.91;;;25.65;39.28
13767;BME280;47980;48.794;9.176;2023-07-13T09:15:24;98417.88;;;25.72;39.05
13767;BME280;47980;48.794;9.176;2023-07-13T09:18:00;98421.88;;;25.24;39.95
13767;BME280;47980;48.794;9.176;2023-07-13T09:20:37;98412.94;;;25.47;39.96
13767;BME280;47980;48.794;9.176;2023-07-13T09:23:15;98408.41;;;24.70;41.00
13767;BME280;47980;48.794;9.176;2023-07-13T09:25:49;98401.78;;;25.81;38.99
13767;BME280;47980;48.794;9.176;2023-07-13T09:28:27;98413.00;;;24.96;40.20
13767;BME280;47980;48.794;9.176;2023-07-13T09:31:05;98422.63;;;25.01;41.57
13767;BME280;47980;48.794;9.176;2023-07-13T09:33:37;98420.06;;;24.67;42.14
13767;BME280;47980;48.794;9.176;2023-07-13T09:36:19;98416.59;;;25.37;41.80
13767;BME280;47980;48.794;9.176;2023-07-13T09:38:58;98414.38;;;25.32;39.57
13767;BME280;47980;48.794;9.176;2023-07-13T09:41:37;98417.53;;;25.70;40.28
13767;BME280;47980;48.794;9.176;2023-07-13T09:44:14;98412.69;;;26.17;38.43
13767;BME280;47980;48.794;9.176;2023-07-13T09:46:53;98404.03;;;26.59;38.25
13767;BME280;47980;48.794;9.176;2023-07-13T09:49:26;98413.72;;;26.44;37.85
13767;BME280;47980;48.794;9.176;2023-07-13T09:51:59;98412.34;;;25.36;39.79
13767;BME280;47980;48.794;9.176;2023-07-13T09:54:33;98411.41;;;25.23;40.24
13767;BME280;47980;48.794;9.176;2023-07-13T09:57:13;98408.66;;;25.03;39.89
13767;BME280;47980;48.794;9.176;2023-07-13T09:59:46;98413.06;;;24.93;40.38
13767;BME280;47980;48.794;9.176;2023-07-13T10:02:28;98408.03;;;24.68;40.41
13767;BME280;47980;48.794;9.176;2023-07-13T10:05:05;98414.72;;;25.34;39.97
13767;BME280;47980;48.794;9.176;2023-07-13T10:07:39;98410.47;;;25.53;40.70
13767;BME280;47980;48.794;9.176;2023-07-13T10:10:14;98401.72;;;26.57;38.50
13767;BME280;47980;48.794;9.176;2023-07-13T10:12:47;98407.03;;;26.28;38.20
13767;BME280;47980;48.794;9.176;2023-07-13T10:15:22;98404.81;;;25.87;38.65
13767;BME280;47980;48.794;9.176;2023-07-13T10:17:57;98412.38;;;26.32;38.46
13767;BME280;47980;48.794;9.176;2023-07-13T10:20:29;98413.56;;;25.55;39.05
13767;BME280;47980;48.794;9.176;2023-07-13T10:23:04;98415.16;;;25.52;38.82
13767;BME280;47980;48.794;9.176;2023-07-13T10:25:39;98406.84;;;25.83;39.33
13767;BME280;47980;48.794;9.176;2023-07-13T10:28:21;98410.50;;;26.65;37.79
13767;BME280;47980;48.794;9.176;2023-07-13T10:30:58;98406.84;;;25.39;38.03
13767;BME280;47980;48.794;9.176;2023-07-13T10:33:32;98406.16;;;25.55;39.55
13767;BME280;47980;48.794;9.176;2023-07-13T10:36:14;98400.31;;;26.69;36.92
13767;BME280;47980;48.794;9.176;2023-07-13T10:38:50;98400.53;;;27.53;36.90
13767;BME280;47980;48.794;9.176;2023-07-13T10:41:24;98400.19;;;27.80;37.12
13767;BME280;47980;48.794;9.176;2023-07-13T10:43:57;98404.53;;;27.19;36.14
13767;BME280;47980;48.794;9.176;2023-07-13T10:46:30;98408.09;;;26.83;36.39
13767;BME280;47980;48.794;9.176;2023-07-13T10:49:05;98400.13;;;26.60;37.30
13767;BME280;47980;48.794;9.176;2023-07-13T10:51:39;98398.00;;;26.84;38.94
13767;BME280;47980;48.794;9.176;2023-07-13T10:54:16;98400.38;;;26.82;38.23
13767;BME280;47980;48.794;9.176;2023-07-13T10:56:50;98404.84;;;26.39;37.75
13767;BME280;47980;48.794;9.176;2023-07-13T10:59:27;98392.25;;;27.11;35.80
13767;BME280;47980;48.794;9.176;2023-07-13T11:02:10;98389.28;;;27.51;35.84
13767;BME280;47980;48.794;9.176;2023-07-13T11:04:46;98386.28;;;27.62;35.75
13767;BME280;47980;48.794;9.176;2023-07-13T11:07:20;98386.13;;;27.52;35.93
13767;BME280;47980;48.794;9.176;2023-07-13T11:09:53;98387.72;;;27.37;36.21
13767;BME280;47980;48.794;9.176;2023-07-13T11:12:49;98387.19;;;27.13;38.41
13767;BME280;47980;48.794;9.176;2023-07-13T11:15:31;98386.09;;;26.25;38.00
13767;BME280;47980;48.794;9.176;2023-07-13T11:18:04;98381.69;;;25.79;38.98
13767;BME280;47980;48.794;9.176;2023-07-13T11:20:40;98385.34;;;25.88;38.72
13767;BME280;47980;48.794;9.176;2023-07-13T11:23:27;98383.44;;;26.91;37.67
13767;BME280;47980;48.794;9.176;2023-07-13T11:26:00;98372.34;;;26.98;37.02
13767;BME280;47980;48.794;9.176;2023-07-13T11:28:41;98366.25;;;27.81;36.83
13767;BME280;47980;48.794;9.176;2023-07-13T11:31:15;98359.09;;;26.83;36.58
13767;BME280;47980;48.794;9.176;2023-07-13T11:33:53;98359.72;;;27.78;35.97
13767;BME280;47980;48.794;9.176;2023-07-13T11:36:30;98370.97;;;27.80;36.20
13767;BME280;47980;48.794;9.176;2023-07-13T11:39:05;98370.59;;;27.36;35.82
13767;BME280;47980;48.794;9.176;2023-07-13T11:41:45;98374.16;;;27.21;37.11
13767;BME280;47980;48.794;9.176;2023-07-13T11:44:18;98380.38;;;26.72;37.32
13767;BME280;47980;48.794;9.176;2023-07-13T11:46:52;98369.75;;;26.78;35.93
13767;BME280;47980;48.794;9.176;2023-07-13T11:49:25;98365.47;;;26.93;36.69
13767;BME280;47980;48.794;9.176;2023-07-13T11:51:59;98365.28;;;27.75;36.20
13767;BME280;47980;48.794;9.176;2023-07-13T11:54:43;98365.69;;;27.31;35.93
13767;BME280;47980;48.794;9.176;2023-07-13T11:57:24;98365.97;;;27.50;35.55
13767;BME280;47980;48.794;9.176;2023-07-13T11:59:58;98361.84;;;27.29;36.40
13767;BME280;47980;48.794;9.176;2023-07-13T12:02:33;98370.75;;;27.00;37.12
13767;BME280;47980;48.794;9.176;2023-07-13T12:05:06;98370.59;;;27.36;36.02
13767;BME280;47980;48.794;9.176;2023-07-13T12:07:44;98364.97;;;27.44;36.30
13767;BME280;47980;48.794;9.176;2023-07-13T12:10:21;98371.72;;;27.81;35.74
13767;BME280;47980;48.794;9.176;2023-07-13T12:12:55;98355.47;;;27.77;34.96
13767;BME280;47980;48.794;9.176;2023-07-13T12:15:34;98357.56;;;28.24;34.95
13767;BME280;47980;48.794;9.176;2023-07-13T12:18:13;98359.66;;;28.07;35.42
13767;BME280;47980;48.794;9.176;2023-07-13T12:20:46;98367.53;;;27.64;35.17
13767;BME280;47980;48.794;9.176;2023-07-13T12:23:24;98372.13;;;27.38;35.44
13767;BME280;47980;48.794;9.176;2023-07-13T12:25:57;98367.16;;;27.91;35.41
13767;BME280;47980;48.794;9.176;2023-07-13T12:28:33;98352.44;;;27.46;34.77
13767;BME280;47980;48.794;9.176;2023-07-13T12:31:06;98361.06;;;27.57;36.46
13767;BME280;47980;48.794;9.176;2023-07-13T12:33:39;98359.50;;;27.15;35.92
13767;BME280;47980;48.794;9.176;2023-07-13T12:36:12;98360.56;;;27.33;35.96
13767;BME280;47980;48.794;9.176;2023-07-13T12:38:46;98359.09;;;27.58;35.75
13767;BME280;47980;48.794;9.176;2023-07-13T12:41:17;98349.75;;;27.72;34.20
13767;BME280;47980;48.794;9.176;2023-07-13T12:43:49;98356.06;;;28.11;34.10
13767;BME280;47980;48.794;9.176;2023-07-13T12:46:24;98350.13;;;27.87;34.77
13767;BME280;47980;48.794;9.176;2023-07-13T12:48:58;98350.75;;;27.36;35.11
13767;BME280;47980;48.794;9.176;2023-07-13T12:51:30;98354.91;;;27.11;35.51
13767;BME280;47980;48.794;9.176;2023-07-13T12:54:13;98358.09;;;27.52;36.51
13767;BME280;47980;48.794;9.176;2023-07-13T12:56:49;98347.50;;;27.12;36.91
13767;BME280;47980;48.794;9.176;2023-07-13T12:59:23;98347.59;;;27.38;36.23
13767;BME280;47980;48.794;9.176;2023-07-13T13:01:56;98347.78;;;27.72;34.95
13767;BME280;47980;48.794;9.176;2023-07-13T13:04:28;98338.69;;;27.79;34.33
13767;BME280;47980;48.794;9.176;2023-07-13T13:07:00;98346.88;;;28.04;35.08
13767;BME280;47980;48.794;9.176;2023-07-13T13:09:33;98352.13;;;28.12;33.94
13767;BME280;47980;48.794;9.176;2023-07-13T13:12:06;98353.25;;;28.40;33.86
13767;BME280;47980;48.794;9.176;2023-07-13T13:14:37;98348.06;;;27.91;34.27
13767;BME280;47980;48.794;9.176;2023-07-13T13:17:18;98352.56;;;27.97;33.65
13767;BME280;47980;48.794;9.176;2023-07-13T13:19:51;98350.78;;;27.49;33.59
13767;BME280;47980;48.794;9.176;2023-07-13T13:22:24;98354.25;;;27.36;34.44
13767;BME280;47980;48.794;9.176;2023-07-13T13:24:57;98352.66;;;27.52;34.29
13767;BME280;47980;48.794;9.176;2023-07-13T13:27:29;98359.25;;;27.67;34.99
13767;BME280;47980;48.794;9.176;2023-07-13T13:30:00;98346.34;;;27.55;34.05
13767;BME280;47980;48.794;9.176;2023-07-13T13:32:32;98352.75;;;27.90;33.57